Time;durP1;ratioP1;P1;durP2;ratioP2;P2;SDS_P1;SDS_P2;PMS_P1;PMS_P2;Temp;Humidity;BMP_temperature;BMP_pressure;BME280_temperature;BME280_humidity;BME280_pressure;Samples;Min_cycle;Max_cycle;Signal;HPM_P1;HPM_P2
2021/07/17 00:00:12;;;;;;;24.40;7.17;;;;;;;21.13;66.84;100532.69;1849486;77;21463;-62
2021/07/17 00:02:40;;;;;;;14.65;6.87;;;;;;;21.12;67.08;100536.86;1849514;77;21475;-62
2021/07/17 00:05:14;;;;;;;18.52;6.58;;;;;;;21.08;67.42;100534.06;1849410;77;21123;-62
2021/07/17 00:07:45;;;;;;;21.62;7.70;;;;;;;21.05;67.73;100537.88;1849518;77;21047;-62
2021/07/17 00:10:22;;;;;;;21.73;6.65;;;;;;;21.01;67.69;100531.09;1849517;77;21044;-62
2021/07/17 00:12:51;;;;;;;19.42;6.72;;;;;;;21.00;67.70;100530.72;1849400;77;21092;-62
2021/07/17 00:15:23;;;;;;;21.90;9.05;;;;;;;20.99;67.50;100527.70;1849443;77;21096;-62
2021/07/17 00:17:52;;;;;;;20.77;9.45;;;;;;;20.98;67.79;100532.69;1849574;77;21139;-62
2021/07/17 00:20:22;;;;;;;18.57;6.80;;;;;;;20.93;67.96;100533.06;1849530;77;21503;-62
2021/07/17 00:22:51;;;;;;;22.35;8.40;;;;;;;20.90;67.99;100529.34;1849515;77;21060;-61
2021/07/17 00:25:21;;;;;;;14.50;7.00;;;;;;;20.88;68.03;100525.08;1849461;76;21099;-62
2021/07/17 00:27:50;;;;;;;15.63;6.80;;;;;;;20.85;68.20;100525.36;1849585;76;21060;-62
2021/07/17 00:30:20;;;;;;;23.30;7.75;;;;;;;20.79;68.21;100516.88;1849433;77;21649;-62
2021/07/17 00:32:49;;;;;;;21.90;8.25;;;;;;;20.77;68.28;100522.02;1849568;77;21099;-62
2021/07/17 00:35:19;;;;;;;27.80;12.73;;;;;;;20.72;68.60;100520.21;1849608;77;21119;-62
2021/07/17 00:37:47;;;;;;;24.63;15.75;;;;;;;20.69;68.57;100527.99;1849456;77;21076;-62
2021/07/17 00:40:20;;;;;;;21.12;11.65;;;;;;;20.66;68.60;100524.26;1849557;76;21068;-62
2021/07/17 00:42:51;;;;;;;23.95;11.22;;;;;;;20.61;68.78;100522.45;1849321;77;21061;-62
2021/07/17 00:45:21;;;;;;;23.95;10.00;;;;;;;20.55;69.25;100524.30;1849648;77;21593;-61
2021/07/17 00:47:53;;;;;;;20.25;7.55;;;;;;;20.43;69.54;100518.97;1823674;79;21092;-62
2021/07/17 00:50:24;;;;;;;17.80;7.58;;;;;;;20.38;69.82;100523.02;1815142;79;21060;-62
2021/07/17 00:52:53;;;;;;;15.00;7.65;;;;;;;20.34;69.60;100516.23;1809576;79;21131;-62
2021/07/17 00:55:25;;;;;;;13.58;7.45;;;;;;;20.28;70.16;100508.23;1809402;79;21168;-62
2021/07/17 00:57:54;;;;;;;18.73;8.25;;;;;;;20.22;70.29;100510.09;1809769;79;21092;-62
2021/07/17 01:00:23;;;;;;;16.57;8.30;;;;;;;20.17;70.48;100505.62;1809362;79;21519;-62
2021/07/17 01:03:07;;;;;;;23.50;7.58;;;;;;;20.13;70.73;100502.84;1809451;79;21515;-62
2021/07/17 01:05:36;;;;;;;15.38;7.15;;;;;;;20.11;70.70;100499.45;1805760;79;21563;-62
2021/07/17 01:08:06;;;;;;;16.42;7.58;;;;;;;20.06;70.80;100508.67;1814554;79;21579;-62
2021/07/17 01:10:35;;;;;;;20.00;7.92;;;;;;;20.03;71.00;100510.29;1814678;79;21022;-62
2021/07/17 01:13:04;;;;;;;18.55;9.18;;;;;;;19.99;71.26;100503.97;1810107;79;21076;-62
2021/07/17 01:15:33;;;;;;;27.37;18.95;;;;;;;19.96;71.37;100506.42;1805575;79;21068;-62
2021/07/17 01:18:02;;;;;;;43.13;25.72;;;;;;;19.97;71.16;100500.08;1841463;77;21098;-62
2021/07/17 01:20:32;;;;;;;46.90;27.02;;;;;;;19.96;70.99;100499.73;1840458;78;21049;-62
2021/07/17 01:23:01;;;;;;;42.98;25.23;;;;;;;19.95;70.77;100508.72;1840485;78;21127;-62
2021/07/17 01:25:34;;;;;;;38.92;20.95;;;;;;;19.92;71.08;100503.64;1840348;78;21080;-62
2021/07/17 01:28:04;;;;;;;33.75;17.02;;;;;;;19.89;71.13;100501.22;1840425;78;21056;-62
2021/07/17 01:30:35;;;;;;;25.12;12.60;;;;;;;19.86;71.10;100504.13;1840279;78;21052;-62
2021/07/17 01:33:06;;;;;;;22.80;12.15;;;;;;;19.86;70.99;100500.12;1840352;77;21033;-62
2021/07/17 01:35:35;;;;;;;22.93;10.60;;;;;;;19.87;70.95;100504.50;1840300;78;21049;-62
2021/07/17 01:38:05;;;;;;;16.80;9.63;;;;;;;19.83;71.03;100502.56;1840503;78;21504;-62
2021/07/17 01:40:34;;;;;;;18.27;9.70;;;;;;;19.81;71.23;100503.68;1840357;78;21033;-62
2021/07/17 01:43:03;;;;;;;19.23;9.25;;;;;;;19.78;71.10;100503.92;1840279;78;21569;-62
2021/07/17 01:45:42;;;;;;;13.15;8.73;;;;;;;19.78;70.91;100504.77;1840308;78;21025;-62
2021/07/17 01:48:10;;;;;;;19.65;8.60;;;;;;;19.76;70.96;100508.05;1839443;78;21029;-62
2021/07/17 01:50:42;;;;;;;16.25;8.73;;;;;;;19.75;70.97;100503.66;1856240;76;21171;-62
2021/07/17 01:53:13;;;;;;;15.90;8.33;;;;;;;19.74;70.95;100507.33;1861733;76;21071;-62
2021/07/17 01:55:42;;;;;;;25.68;9.15;;;;;;;19.73;71.03;100500.77;1861600;76;21108;-62
2021/07/17 01:58:12;;;;;;;16.52;8.30;;;;;;;19.72;71.05;100496.38;1861690;77;21120;-62
2021/07/17 02:00:41;;;;;;;27.22;8.78;;;;;;;19.71;71.14;100506.69;1861878;77;21494;-62
2021/07/17 02:03:11;;;;;;;15.93;7.58;;;;;;;19.71;70.98;100509.36;1861818;77;21564;-62
2021/07/17 02:05:40;;;;;;;25.12;8.10;;;;;;;19.68;71.01;100511.31;1861734;77;21130;-62
2021/07/17 02:08:14;;;;;;;17.95;7.85;;;;;;;19.65;71.32;100512.89;1861832;76;21105;-64
2021/07/17 02:10:43;;;;;;;12.55;7.20;;;;;;;19.65;71.33;100514.72;1861832;77;21038;-62
2021/07/17 02:13:14;;;;;;;20.68;7.83;;;;;;;19.64;71.37;100510.34;1861820;77;21059;-62
2021/07/17 02:15:51;;;;;;;18.98;7.80;;;;;;;19.63;71.41;100512.66;1861767;77;21031;-62
2021/07/17 02:18:34;;;;;;;15.53;7.15;;;;;;;19.63;71.53;100508.66;1861820;77;21109;-62
2021/07/17 02:21:06;;;;;;;14.80;7.15;;;;;;;19.65;71.32;100518.23;1861778;77;21132;-62
2021/07/17 02:23:36;;;;;;;19.60;6.95;;;;;;;19.70;71.02;100512.53;1861724;76;21035;-62
2021/07/17 02:26:06;;;;;;;15.08;8.58;;;;;;;19.73;70.92;100521.64;1861889;77;21376;-62
2021/07/17 02:28:36;;;;;;;18.60;8.30;;;;;;;19.72;70.97;100517.75;1861711;77;21513;-62
2021/07/17 02:31:05;;;;;;;17.85;7.55;;;;;;;19.71;71.15;100520.05;1861585;77;21383;-63
2021/07/17 02:33:35;;;;;;;16.62;7.70;;;;;;;19.68;71.26;100517.16;1861719;77;21007;-62
2021/07/17 02:36:04;;;;;;;18.07;7.53;;;;;;;19.72;71.12;100525.77;1861703;77;21059;-62
2021/07/17 02:38:33;;;;;;;13.72;6.75;;;;;;;19.76;71.13;100521.90;1861712;77;21116;-62
2021/07/17 02:41:02;;;;;;;20.12;7.58;;;;;;;19.86;71.05;100522.83;1861712;77;21063;-62
2021/07/17 02:43:31;;;;;;;17.87;8.80;;;;;;;19.94;70.89;100521.73;1861645;77;21485;-63
2021/07/17 02:46:00;;;;;;;16.07;8.40;;;;;;;19.98;70.73;100519.16;1861648;77;21073;-62
2021/07/17 02:48:28;;;;;;;15.60;7.90;;;;;;;20.00;70.64;100523.89;1861655;76;21140;-62
2021/07/17 02:50:57;;;;;;;20.35;8.90;;;;;;;20.07;70.52;100522.91;1884385;76;21089;-62
2021/07/17 02:53:26;;;;;;;17.87;7.20;;;;;;;20.14;70.53;100525.91;1892547;75;21084;-62
2021/07/17 02:55:55;;;;;;;18.80;7.70;;;;;;;20.26;70.37;100532.92;1892547;75;21041;-62
2021/07/17 02:58:23;;;;;;;16.97;8.33;;;;;;;20.44;70.09;100530.05;1892403;75;21536;-62
2021/07/17 03:00:55;;;;;;;18.48;8.03;;;;;;;20.67;69.80;100523.27;1892513;76;21065;-62
2021/07/17 03:03:24;;;;;;;20.88;8.58;;;;;;;20.90;69.39;100521.81;1892665;76;21542;-62
2021/07/17 03:05:54;;;;;;;14.83;7.83;;;;;;;21.05;68.42;100519.13;1892760;76;21496;-62
2021/07/17 03:08:25;;;;;;;13.85;7.92;;;;;;;21.21;67.75;100525.35;1892571;76;21065;-62
2021/07/17 03:10:57;;;;;;;18.10;8.65;;;;;;;21.36;67.15;100517.80;1892519;76;21131;-62
2021/07/17 03:13:26;;;;;;;14.07;7.08;;;;;;;21.47;66.53;100515.52;1892622;76;21110;-62
2021/07/17 03:15:54;;;;;;;13.95;6.97;;;;;;;21.57;66.25;100522.61;1892634;76;21038;-62
2021/07/17 03:18:23;;;;;;;11.80;6.35;;;;;;;21.67;66.02;100516.43;1892659;75;21014;-62
2021/07/17 03:20:52;;;;;;;17.02;7.08;;;;;;;21.78;65.52;100518.98;1892626;76;21061;-62
2021/07/17 03:23:20;;;;;;;12.65;5.97;;;;;;;21.82;64.82;100514.20;1892482;76;21057;-62
2021/07/17 03:25:49;;;;;;;16.45;6.78;;;;;;;21.81;64.99;100512.52;1892627;76;21061;-62
2021/07/17 03:28:17;;;;;;;15.38;7.37;;;;;;;21.91;65.13;100514.23;1892675;76;21025;-62
2021/07/17 03:30:46;;;;;;;15.80;5.80;;;;;;;21.97;64.95;100509.66;1892771;76;21194;-62
2021/07/17 03:33:16;;;;;;;17.75;6.20;;;;;;;22.07;64.81;100506.13;1892661;76;21139;-62
2021/07/17 03:35:44;;;;;;;14.87;6.20;;;;;;;22.09;64.67;100511.70;1892476;76;21546;-63
2021/07/17 03:38:13;;;;;;;19.20;6.53;;;;;;;22.21;64.78;100509.74;1892706;76;21065;-62
2021/07/17 03:40:42;;;;;;;13.03;6.12;;;;;;;22.34;64.59;100510.33;1892620;76;21041;-62
2021/07/17 03:43:12;;;;;;;16.23;6.20;;;;;;;22.41;63.78;100509.75;1892601;76;21124;-62
2021/07/17 03:45:41;;;;;;;13.05;6.00;;;;;;;22.50;63.67;100516.47;1892743;75;21038;-62
2021/07/17 03:48:10;;;;;;;13.08;6.50;;;;;;;22.63;63.63;100518.86;1892532;76;21111;-63
2021/07/17 03:50:39;;;;;;;10.85;6.67;;;;;;;22.73;63.45;100520.17;1893580;76;21152;-62
2021/07/17 03:53:08;;;;;;;15.75;6.90;;;;;;;22.88;63.21;100521.91;1895660;76;21559;-62
2021/07/17 03:55:36;;;;;;;14.70;6.87;;;;;;;23.03;62.98;100515.07;1895728;76;21135;-62
2021/07/17 03:58:05;;;;;;;17.37;7.42;;;;;;;23.22;62.60;100522.74;1895737;76;21041;-62
2021/07/17 04:00:34;;;;;;;12.63;6.58;;;;;;;23.34;61.86;100521.56;1895845;76;21013;-62
2021/07/17 04:03:04;;;;;;;16.42;5.60;;;;;;;23.50;61.47;100518.25;1895580;76;21501;-63
2021/07/17 04:05:33;;;;;;;20.60;6.75;;;;;;;23.63;60.92;100525.97;1895818;76;21111;-62
2021/07/17 04:08:02;;;;;;;17.77;6.37;;;;;;;23.74;60.54;100523.06;1895769;76;21103;-62
2021/07/17 04:10:31;;;;;;;13.48;5.40;;;;;;;23.89;60.08;100519.39;1895661;74;21559;-62
2021/07/17 04:13:01;;;;;;;11.95;5.28;;;;;;;23.95;59.71;100515.25;1895688;76;21057;-62
2021/07/17 04:15:30;;;;;;;18.50;6.50;;;;;;;24.16;59.56;100522.53;1895610;76;21044;-63
2021/07/17 04:17:59;;;;;;;15.88;5.95;;;;;;;24.35;59.27;100520.69;1895821;76;21009;-62
2021/07/17 04:20:28;;;;;;;12.90;5.97;;;;;;;24.58;58.84;100523.75;1895692;75;21175;-62
2021/07/17 04:22:57;;;;;;;17.85;5.85;;;;;;;24.88;58.29;100521.13;1895718;76;21029;-62
2021/07/17 04:25:25;;;;;;;14.80;6.85;;;;;;;25.15;57.52;100524.63;1895848;74;21034;-62
2021/07/17 04:27:54;;;;;;;17.62;9.10;;;;;;;25.41;57.03;100520.06;1895819;76;21049;-63
2021/07/17 04:30:23;;;;;;;18.85;7.92;;;;;;;25.74;56.81;100518.84;1895810;76;21009;-63
2021/07/17 04:32:52;;;;;;;18.15;9.23;;;;;;;26.10;56.19;100521.32;1895765;76;21021;-62
2021/07/17 04:35:21;;;;;;;17.92;8.75;;;;;;;26.46;55.74;100529.60;1895734;75;21119;-63
2021/07/17 04:37:50;;;;;;;20.17;8.13;;;;;;;26.81;55.09;100524.38;1895663;76;21586;-62
2021/07/17 04:40:19;;;;;;;11.08;6.65;;;;;;;27.10;53.98;100520.27;1895633;76;21116;-63
2021/07/17 04:42:47;;;;;;;15.70;7.17;;;;;;;27.32;52.47;100516.84;1895806;74;21042;-62
2021/07/17 04:45:16;;;;;;;12.93;6.22;;;;;;;27.56;51.84;100516.93;1895816;76;21053;-61
2021/07/17 04:47:45;;;;;;;20.57;6.17;;;;;;;27.81;51.65;100513.56;1895799;75;21119;-62
2021/07/17 04:50:14;;;;;;;15.53;5.42;;;;;;;28.10;51.23;100509.67;1895705;76;21135;-62
2021/07/17 04:52:43;;;;;;;12.50;5.42;;;;;;;28.40;50.87;100513.84;1865477;75;21070;-61
2021/07/17 04:55:12;;;;;;;19.12;5.62;;;;;;;28.69;50.27;100508.20;1861731;76;21104;-62
2021/07/17 04:57:41;;;;;;;14.68;5.45;;;;;;;28.95;49.30;100513.71;1861765;76;21101;-62
2021/07/17 05:00:10;;;;;;;11.65;5.70;;;;;;;29.23;49.08;100505.30;1861887;77;21030;-62
2021/07/17 05:02:54;;;;;;;13.75;6.25;;;;;;;29.55;48.39;100503.19;1861766;76;21043;-62
2021/07/17 05:05:24;;;;;;;18.40;6.25;;;;;;;29.85;47.84;100505.86;1861727;77;21517;-62
2021/07/17 05:07:53;;;;;;;24.80;7.30;;;;;;;30.17;46.83;100504.50;1861740;76;21162;-62
2021/07/17 05:10:25;;;;;;;13.65;7.08;;;;;;;30.44;46.49;100503.42;1861789;76;21108;-61
2021/07/17 05:12:54;;;;;;;14.35;5.45;;;;;;;30.73;45.85;100502.41;1861821;76;21536;-62
2021/07/17 05:15:23;;;;;;;16.62;6.72;;;;;;;30.86;44.82;100508.45;1861761;77;21059;-62
2021/07/17 05:17:51;;;;;;;18.92;6.25;;;;;;;31.05;44.63;100505.56;1861710;76;21055;-62
2021/07/17 05:20:20;;;;;;;13.88;5.97;;;;;;;31.26;44.23;100503.25;1861671;76;21042;-62
2021/07/17 05:22:49;;;;;;;18.20;6.50;;;;;;;31.54;44.06;100503.22;1861737;77;21057;-62
2021/07/17 05:25:18;;;;;;;12.47;5.50;;;;;;;31.84;43.54;100494.72;1861696;76;21093;-62
2021/07/17 05:27:46;;;;;;;22.45;7.30;;;;;;;32.09;43.01;100498.24;1861856;77;21034;-62
2021/07/17 05:30:16;;;;;;;13.83;5.50;;;;;;;32.21;42.62;100497.95;1861718;77;21054;-62
2021/07/17 05:32:45;;;;;;;20.27;6.35;;;;;;;32.45;41.72;100497.85;1861631;77;21086;-62
2021/07/17 05:35:14;;;;;;;11.65;5.28;;;;;;;32.64;41.33;100492.62;1861711;77;21104;-62
2021/07/17 05:37:43;;;;;;;20.82;5.22;;;;;;;32.89;40.86;100492.81;1861755;77;21481;-62
2021/07/17 05:40:13;;;;;;;22.32;5.85;;;;;;;33.13;40.54;100485.85;1861844;76;21136;-62
2021/07/17 05:42:42;;;;;;;14.73;5.12;;;;;;;33.38;39.76;100490.58;1861748;77;21108;-62
2021/07/17 05:45:11;;;;;;;16.25;4.97;;;;;;;33.37;39.24;100488.38;1861617;77;21132;-62
2021/07/17 05:47:40;;;;;;;12.73;4.95;;;;;;;33.32;38.57;100488.19;1861868;77;21089;-62
2021/07/17 05:50:09;;;;;;;16.05;5.00;;;;;;;33.31;37.52;100487.90;1861782;77;21163;-62
2021/07/17 05:52:38;;;;;;;16.32;4.92;;;;;;;33.43;37.71;100484.78;1880655;76;21123;-62
2021/07/17 05:55:08;;;;;;;12.55;5.20;;;;;;;33.58;38.04;100486.39;1895849;76;21037;-62
2021/07/17 05:57:37;;;;;;;9.13;4.40;;;;;;;33.70;38.46;100479.23;1895692;76;21037;-62
2021/07/17 06:00:08;;;;;;;12.33;4.85;;;;;;;33.96;37.87;100477.39;1895700;75;21538;-62
2021/07/17 06:02:43;;;;;;;12.10;4.37;;;;;;;34.56;36.52;100472.28;1895693;76;21069;-61
2021/07/17 06:05:12;;;;;;;15.10;5.40;;;;;;;34.56;36.52;100472.28;1895782;76;21501;-62
2021/07/17 06:07:40;;;;;;;11.80;4.40;;;;;;;34.92;36.37;100473.97;1895689;76;21492;-62
2021/07/17 06:10:10;;;;;;;9.83;4.08;;;;;;;35.07;35.16;100480.42;1895623;76;21041;-61
2021/07/17 06:12:39;;;;;;;14.13;4.45;;;;;;;35.23;34.54;100475.74;1895691;76;21586;-62
2021/07/17 06:15:09;;;;;;;15.70;4.78;;;;;;;35.35;34.21;100472.52;1895723;76;21154;-62
2021/07/17 06:17:37;;;;;;;15.98;5.03;;;;;;;35.59;33.90;100474.00;1895696;76;20993;-61
2021/07/17 06:20:07;;;;;;;12.70;4.53;;;;;;;35.79;33.56;100468.27;1895717;75;21057;-62
2021/07/17 06:22:36;;;;;;;15.78;3.95;;;;;;;36.03;33.25;100467.80;1895694;76;21026;-62
2021/07/17 06:25:06;;;;;;;12.20;4.37;;;;;;;36.24;32.78;100464.22;1895690;76;21104;-61
2021/07/17 06:27:35;;;;;;;11.40;4.30;;;;;;;36.39;31.94;100459.12;1895792;76;21041;-61
2021/07/17 06:30:04;;;;;;;11.20;5.12;;;;;;;36.59;30.66;100457.91;1895676;76;21043;-61
2021/07/17 06:32:33;;;;;;;11.22;4.28;;;;;;;36.72;30.89;100457.69;1895644;76;21095;-62
2021/07/17 06:35:01;;;;;;;13.93;4.53;;;;;;;36.88;30.10;100454.76;1895767;76;21029;-62
2021/07/17 06:37:30;;;;;;;16.87;5.25;;;;;;;36.97;30.50;100455.23;1895657;76;21444;-61
2021/07/17 06:39:59;;;;;;;14.80;5.03;;;;;;;37.13;30.87;100454.47;1895690;76;21077;-62
2021/07/17 06:42:27;;;;;;;15.72;4.90;;;;;;;37.11;29.75;100448.36;1895745;75;21091;-61
2021/07/17 06:44:56;;;;;;;10.40;4.80;;;;;;;37.12;30.42;100456.91;1895660;75;21155;-62
2021/07/17 06:47:25;;;;;;;13.88;5.12;;;;;;;37.28;30.44;100452.05;1895674;76;21017;-62
2021/07/17 06:49:54;;;;;;;12.58;5.10;;;;;;;37.38;29.86;100447.84;1895576;74;21132;-62
2021/07/17 06:52:23;;;;;;;16.23;4.58;;;;;;;37.47;29.97;100453.23;1890323;76;21148;-62
2021/07/17 06:54:52;;;;;;;22.60;5.35;;;;;;;37.74;30.09;100451.27;1861655;77;21059;-62
2021/07/17 06:57:20;;;;;;;16.42;4.90;;;;;;;37.93;30.29;100448.61;1861690;76;21042;-62
2021/07/17 06:59:49;;;;;;;13.00;5.22;;;;;;;38.23;30.07;100450.22;1861698;77;21093;-62
2021/07/17 07:02:18;;;;;;;15.18;4.67;;;;;;;38.42;29.90;100446.13;1861584;76;21046;-62
2021/07/17 07:04:47;;;;;;;21.35;4.58;;;;;;;38.62;30.35;100448.90;1861820;76;21121;-62
2021/07/17 07:07:15;;;;;;;17.55;4.65;;;;;;;38.75;29.16;100448.56;1861930;77;21120;-62
2021/07/17 07:09:44;;;;;;;15.45;4.92;;;;;;;38.87;28.35;100455.86;1840232;77;21078;-61
2021/07/17 07:12:13;;;;;;;11.63;5.20;;;;;;;39.00;28.75;100452.72;1831076;78;21033;-61
2021/07/17 07:14:41;;;;;;;16.42;5.05;;;;;;;39.17;28.94;100454.88;1830854;77;21157;-62
2021/07/17 07:17:11;;;;;;;12.20;4.10;;;;;;;39.32;27.91;100458.34;1830928;78;21124;-61
2021/07/17 07:19:40;;;;;;;44.48;5.47;;;;;;;39.28;27.22;100459.14;1830937;78;21544;-61
2021/07/17 07:22:08;;;;;;;19.05;4.33;;;;;;;39.39;26.94;100448.52;1830921;78;21117;-61
2021/07/17 07:24:37;;;;;;;15.03;4.05;;;;;;;39.62;27.12;100447.95;1830946;78;21157;-61
2021/07/17 07:27:06;;;;;;;11.85;4.20;;;;;;;39.71;26.92;100447.24;1830919;78;21116;-62
2021/07/17 07:29:35;;;;;;;10.10;4.03;;;;;;;39.69;26.55;100449.95;1830842;78;21023;-61
2021/07/17 07:32:04;;;;;;;11.30;4.28;;;;;;;39.64;25.79;100452.12;1830913;78;21107;-61
2021/07/17 07:34:33;;;;;;;13.28;4.78;;;;;;;39.63;25.71;100447.70;1830907;78;21062;-60
2021/07/17 07:37:02;;;;;;;11.88;4.22;;;;;;;39.83;26.56;100448.99;1831002;78;21048;-61
2021/07/17 07:39:32;;;;;;;17.50;4.05;;;;;;;40.11;26.38;100446.50;1830927;78;21027;-61
2021/07/17 07:42:00;;;;;;;14.43;4.15;;;;;;;40.27;25.70;100448.83;1830804;78;21046;-61
2021/07/17 07:44:30;;;;;;;11.25;3.58;;;;;;;40.12;25.13;100441.28;1830918;78;21032;-61
2021/07/17 07:46:58;;;;;;;8.80;3.92;;;;;;;40.02;24.91;100437.05;1831039;78;21108;-61
2021/07/17 07:49:27;;;;;;;16.25;3.58;;;;;;;40.01;24.62;100432.62;1831049;78;21152;-61
2021/07/17 07:51:56;;;;;;;11.78;3.80;;;;;;;40.22;24.49;100437.20;1831009;78;21509;-61
2021/07/17 07:54:24;;;;;;;10.18;3.85;;;;;;;40.43;25.53;100436.84;1836673;78;21081;-61
2021/07/17 07:56:53;;;;;;;10.30;3.62;;;;;;;40.60;24.78;100435.80;1839190;78;21065;-61
2021/07/17 07:59:22;;;;;;;9.68;3.77;;;;;;;40.56;23.73;100428.64;1839304;78;21054;-61
2021/07/17 08:01:51;;;;;;;8.40;3.35;;;;;;;40.64;24.15;100423.98;1839337;78;21053;-61
2021/07/17 08:04:20;;;;;;;10.30;3.58;;;;;;;40.58;24.03;100428.34;1839183;78;21120;-61
2021/07/17 08:06:48;;;;;;;10.98;3.47;;;;;;;40.52;23.80;100424.20;1839146;78;21120;-62
2021/07/17 08:16:39;;;;;;;9.80;3.67;;;;;;;40.85;23.27;100426.86;1839214;78;21524;-61
2021/07/17 08:19:09;;;;;;;14.40;4.08;;;;;;;40.97;23.34;100423.86;1839223;78;21074;-61
2021/07/17 08:21:38;;;;;;;11.00;2.98;;;;;;;41.12;24.01;100418.41;1839125;78;21086;-61
2021/07/17 08:24:08;;;;;;;13.43;4.10;;;;;;;41.23;23.69;100413.78;1839195;78;21466;-61
2021/07/17 08:26:37;;;;;;;15.38;4.03;;;;;;;41.19;23.36;100417.60;1839320;78;21144;-61
2021/07/17 08:29:06;;;;;;;12.60;3.40;;;;;;;40.93;23.46;100412.55;1839217;78;21061;-61
2021/07/17 08:31:35;;;;;;;10.88;4.33;;;;;;;40.85;23.27;100416.64;1839164;78;21529;-61
2021/07/17 08:34:03;;;;;;;9.33;3.65;;;;;;;40.84;23.32;100416.94;1839182;78;21049;-62
2021/07/17 08:36:33;;;;;;;16.60;3.80;;;;;;;40.81;24.16;100421.61;1839314;78;21042;-61
2021/07/17 08:39:02;;;;;;;9.50;3.27;;;;;;;41.04;24.33;100422.53;1839193;78;21496;-61
2021/07/17 08:41:34;;;;;;;10.23;4.03;;;;;;;41.08;22.81;100419.50;1839229;78;21089;-61
2021/07/17 08:44:03;;;;;;;8.98;3.47;;;;;;;41.16;23.71;100420.08;1839194;78;21120;-61
2021/07/17 08:46:32;;;;;;;9.85;3.80;;;;;;;41.32;22.88;100420.43;1839188;78;21089;-62
2021/07/17 08:49:01;;;;;;;7.83;3.20;;;;;;;41.34;22.48;100420.98;1839206;78;21026;-61
2021/07/17 08:51:30;;;;;;;6.62;2.98;;;;;;;41.50;22.26;100419.05;1839161;78;21610;-61
2021/07/17 08:53:59;;;;;;;8.93;3.33;;;;;;;41.60;21.93;100416.87;1844759;77;21100;-61
2021/07/17 08:56:30;;;;;;;9.95;3.50;;;;;;;41.56;22.43;100419.92;1863525;76;21089;-61
2021/07/17 08:59:00;;;;;;;11.60;3.52;;;;;;;41.50;22.06;100415.47;1863961;77;21064;-63
2021/07/17 09:01:29;;;;;;;11.50;3.87;;;;;;;41.46;22.06;100417.39;1863561;76;21119;-61
2021/07/17 09:03:57;;;;;;;15.85;4.00;;;;;;;41.34;22.08;100410.50;1863580;77;21064;-61
2021/07/17 09:06:26;;;;;;;15.75;4.03;;;;;;;41.36;22.85;100416.02;1863576;77;21126;-61
2021/07/17 09:08:55;;;;;;;14.30;4.33;;;;;;;41.33;22.87;100419.31;1863642;77;21041;-61
2021/07/17 09:11:38;;;;;;;12.88;3.92;;;;;;;41.18;22.91;100414.55;1863478;77;21077;-61
2021/07/17 09:14:06;;;;;;;12.75;3.83;;;;;;;41.11;23.18;100408.45;1861221;77;21053;-61
2021/07/17 09:16:39;;;;;;;11.43;3.83;;;;;;;41.03;23.03;100408.43;1863536;77;21025;-61
2021/07/17 09:19:08;;;;;;;10.93;3.87;;;;;;;40.80;22.95;100400.08;1863633;77;21115;-61
2021/07/17 09:21:38;;;;;;;12.75;3.70;;;;;;;40.72;23.14;100406.89;1863521;77;21490;-61
2021/07/17 09:24:12;;;;;;;9.45;3.83;;;;;;;40.59;23.55;100401.88;1863757;77;21045;-61
2021/07/17 09:26:52;;;;;;;11.00;3.90;;;;;;;40.45;23.70;100399.30;1863729;77;21077;-61
2021/07/17 09:29:21;;;;;;;16.82;4.00;;;;;;;40.33;23.98;100393.98;1863830;77;21547;-61
2021/07/17 09:31:52;;;;;;;21.00;4.00;;;;;;;40.27;24.13;100397.25;1863621;77;21147;-61
2021/07/17 09:34:24;;;;;;;7.85;4.00;;;;;;;40.25;24.18;100391.17;1863653;77;21175;-62
2021/07/17 09:37:02;;;;;;;10.80;3.58;;;;;;;40.18;23.82;100387.82;1863661;77;21088;-61
2021/07/17 09:39:38;;;;;;;9.08;3.50;;;;;;;40.14;24.24;100387.52;1863535;77;21185;-61
2021/07/17 09:42:09;;;;;;;11.08;3.50;;;;;;;40.13;23.79;100388.60;1861443;77;21480;-61
2021/07/17 09:44:39;;;;;;;8.35;3.60;;;;;;;40.00;24.27;100384.11;1863678;77;21143;-61
2021/07/17 09:47:21;;;;;;;7.30;3.45;;;;;;;39.86;24.34;100382.30;1863412;76;21077;-60
2021/07/17 09:49:51;;;;;;;12.05;4.40;;;;;;;39.79;24.30;100378.41;1863678;77;21052;-61
2021/07/17 09:52:23;;;;;;;10.80;3.90;;;;;;;39.72;24.72;100370.91;1863515;77;21127;-61
2021/07/17 09:55:12;;;;;;;13.65;3.70;;;;;;;39.82;24.79;100370.97;1863425;77;21097;-61
2021/07/17 09:57:41;;;;;;;7.40;3.98;;;;;;;39.70;24.70;100374.48;1863449;77;21206;-61
2021/07/17 10:00:24;;;;;;;16.82;4.53;;;;;;;39.75;24.86;100366.27;1863532;77;21492;-61
2021/07/17 10:02:52;;;;;;;;;;;;;;;39.69;24.94;100366.73;1866297;77;21507;-61
2021/07/17 10:05:22;;;;;;;9.33;3.58;;;;;;;39.65;24.96;100366.16;1863665;77;20134;-61
2021/07/17 10:07:52;;;;;;;11.88;3.98;;;;;;;39.47;25.19;100366.00;1859986;76;21507;-61
2021/07/17 10:10:28;;;;;;;13.62;4.12;;;;;;;39.40;25.27;100364.82;1859586;77;21191;-62
2021/07/17 10:12:59;;;;;;;10.95;4.03;;;;;;;39.35;25.13;100362.84;1863600;77;21045;-61
2021/07/17 10:15:31;;;;;;;11.48;3.90;;;;;;;39.36;25.56;100361.76;1863758;77;21052;-61
2021/07/17 10:18:24;;;;;;;9.63;3.85;;;;;;;39.26;25.65;100369.08;1863413;77;21119;-61
2021/07/17 10:20:58;;;;;;;10.98;3.98;;;;;;;39.25;26.12;100367.41;1863631;77;21099;-61
2021/07/17 10:23:27;;;;;;;12.15;4.00;;;;;;;39.34;26.46;100361.72;1863632;76;21037;-62
2021/07/17 10:25:56;;;;;;;13.80;4.17;;;;;;;39.44;25.72;100361.83;1863589;76;21041;-62
2021/07/17 10:28:25;;;;;;;13.53;3.85;;;;;;;39.32;25.62;100356.46;1863489;77;21100;-62
2021/07/17 10:30:55;;;;;;;8.80;4.10;;;;;;;39.35;26.79;100350.44;1863385;77;21448;-62
2021/07/17 10:33:24;;;;;;;10.18;3.95;;;;;;;39.52;26.23;100344.84;1863478;77;21551;-62
2021/07/17 10:35:55;;;;;;;8.90;3.67;;;;;;;39.72;26.19;100343.36;1863512;77;21044;-62
2021/07/17 10:38:24;;;;;;;16.00;3.90;;;;;;;39.73;25.83;100343.10;1863810;77;21045;-63
2021/07/17 10:40:56;;;;;;;11.25;3.52;;;;;;;39.74;25.92;100341.16;1863493;76;21512;-63
2021/07/17 10:43:25;;;;;;;7.92;3.75;;;;;;;39.65;25.69;100342.75;1863535;77;21151;-63
2021/07/17 10:45:54;;;;;;;14.15;3.98;;;;;;;39.48;25.61;100336.82;1863486;76;21554;-63
2021/07/17 10:48:31;;;;;;;11.08;4.05;;;;;;;39.34;26.00;100341.06;1863402;77;21048;-63
2021/07/17 10:51:05;;;;;;;9.18;3.52;;;;;;;39.30;26.43;100338.55;1863598;76;21025;-63
2021/07/17 10:53:54;;;;;;;14.55;4.25;;;;;;;39.35;26.74;100335.85;1858278;77;21464;-63
2021/07/17 10:56:33;;;;;;;15.75;4.40;;;;;;;39.41;27.37;100329.28;1862490;77;21084;-63
2021/07/17 10:59:13;;;;;;;10.48;3.98;;;;;;;39.23;27.08;100325.53;1863712;77;21124;-63
2021/07/17 11:02:05;;;;;;;11.30;3.98;;;;;;;38.96;26.68;100329.92;1862206;77;21053;-63
2021/07/17 11:04:49;;;;;;;10.00;3.98;;;;;;;38.74;27.27;100325.00;1846975;77;21064;-63
2021/07/17 11:07:20;;;;;;;15.25;3.92;;;;;;;38.62;27.96;100325.11;1863435;76;21049;-63
2021/07/17 11:09:57;;;;;;;17.50;4.45;;;;;;;38.49;27.55;100319.98;1863608;77;21037;-63
2021/07/17 11:12:32;;;;;;;20.97;4.72;;;;;;;38.28;27.32;100312.02;1863416;77;21013;-64
2021/07/17 11:15:12;;;;;;;12.73;3.60;;;;;;;38.24;28.14;100312.52;1861886;77;21146;-63
2021/07/17 11:17:46;;;;;;;17.00;4.00;;;;;;;38.18;27.65;100309.42;1848237;77;21049;-65
2021/07/17 11:20:20;;;;;;;8.60;3.90;;;;;;;38.00;27.83;100302.25;1862149;77;21025;-63
2021/07/17 11:23:01;;;;;;;9.10;3.52;;;;;;;37.90;28.43;100299.34;1869147;77;21443;-64
2021/07/17 11:25:30;;;;;;;12.80;3.80;;;;;;;37.88;27.91;100304.26;1840033;76;21500;-63
2021/07/17 11:28:00;;;;;;;13.48;4.25;;;;;;;37.79;27.97;100301.09;1833060;77;21495;-63
2021/07/17 11:30:34;;;;;;;12.37;4.15;;;;;;;37.80;28.57;100288.22;1832454;77;21064;-65
2021/07/17 11:33:09;;;;;;;17.42;4.35;;;;;;;37.80;27.89;100283.55;1832664;78;21139;-64
2021/07/17 11:35:39;;;;;;;11.12;3.58;;;;;;;37.77;27.67;100285.96;1832744;77;21174;-64
2021/07/17 11:38:12;;;;;;;12.37;4.85;;;;;;;37.75;27.13;100283.45;1863676;76;21126;-64